Observation data for Roaring Springs on 03/24/2019      Previous  Date  Next       Current Mesonet Observations  Soil Data  Daily Summary Page  Observations in Plain Language
KRRS 240505Z 24006KT 11/M01 A2997 RMK A01 T01131007  RH  044%=      5-min Rain = 0
KRRS 240510Z 24006KT 11/M01 A2997 RMK A01 T01141007  RH  044%=      5-min Rain = 0
KRRS 240515Z 25006KT 11/M01 A2997 RMK A01 T01131007  RH  044%=      5-min Rain = 0
KRRS 240520Z 25006KT 11/M01 A2996 RMK A01 T01131008  RH  044%=      5-min Rain = 0
KRRS 240525Z 25006KT 11/M01 A2996 RMK A01 T01141010  RH  043%=      5-min Rain = 0
KRRS 240530Z 25006KT 12/M01 A2996 RMK A01 T01151011  RH  042%=      5-min Rain = 0
KRRS 240535Z 25007KT 12/M01 A2996 RMK A01 T01181012  RH  041%=      5-min Rain = 0
KRRS 240540Z 24008KT 13/M01 A2996 RMK A01 T01251014  RH  038%=      5-min Rain = 0
KRRS 240545Z 24007KT 13/M02 A2996 RMK A01 T01281015  RH  037%=      5-min Rain = 0
KRRS 240550Z 24007KT 13/M01 A2996 RMK A01 T01251014  RH  038%=      5-min Rain = 0
KRRS 240555Z 24006KT 12/M01 A2996 RMK A01 T01211014  RH  040%=      5-min Rain = 0
KRRS 240600Z 25006KT 12/M01 A2996 RMK A01 T01181014  RH  040%=      5-min Rain = 0
KRRS 240605Z 25007KT 12/M02 A2996 RMK A01 T01181016  RH  040%=      5-min Rain = 0
KRRS 240610Z 25006KT 12/M02 A2996 RMK A01 T01221020  RH  037%=      5-min Rain = 0
KRRS 240615Z 25006KT 13/M02 A2996 RMK A01 T01251023  RH  036%=      5-min Rain = 0
KRRS 240620Z 24007KT 13/M03 A2996 RMK A01 T01301026  RH  034%=      5-min Rain = 0
KRRS 240625Z 24007KT 13/M03 A2996 RMK A01 T01311026  RH  034%=      5-min Rain = 0
KRRS 240630Z 24007KT 13/M03 A2996 RMK A01 T01291025  RH  034%=      5-min Rain = 0
KRRS 240635Z 24007KT 13/M02 A2996 RMK A01 T01261023  RH  036%=      5-min Rain = 0
KRRS 240640Z 25006KT 12/M02 A2996 RMK A01 T01221023  RH  037%=      5-min Rain = 0
KRRS 240645Z 25006KT 12/M02 A2996 RMK A01 T01211023  RH  037%=      5-min Rain = 0
KRRS 240650Z 24006KT 12/M02 A2996 RMK A01 T01201023  RH  037%=      5-min Rain = 0
KRRS 240655Z 24007KT 12/M02 A2996 RMK A01 T01191023  RH  037%=      5-min Rain = 0
KRRS 240700Z 26007KT 12/M02 A2996 RMK A01 T01211023  RH  037%=      5-min Rain = 0
KRRS 240705Z 26006KT 12/M02 A2996 RMK A01 T01161021  RH  039%=      5-min Rain = 0
KRRS 240710Z 23007KT 11/M02 A2996 RMK A01 T01131021  RH  039%=      5-min Rain = 0
KRRS 240715Z 24008KT 12/M02 A2996 RMK A01 T01151022  RH  039%=      5-min Rain = 0
KRRS 240720Z 24008KT 12/M02 A2996 RMK A01 T01171021  RH  038%=      5-min Rain = 0
KRRS 240725Z 23009KT 12/M02 A2996 RMK A01 T01201023  RH  037%=      5-min Rain = 0
KRRS 240730Z 23009KT 12/M02 A2996 RMK A01 T01201020  RH  038%=      5-min Rain = 0
KRRS 240735Z 24009KT 12/M02 A2996 RMK A01 T01191021  RH  038%=      5-min Rain = 0
KRRS 240740Z 25008KT 12/M02 A2996 RMK A01 T01221021  RH  037%=      5-min Rain = 0
KRRS 240745Z 25008KT 12/M02 A2996 RMK A01 T01211021  RH  038%=      5-min Rain = 0
KRRS 240750Z 25007KT 12/M02 A2996 RMK A01 T01211021  RH  037%=      5-min Rain = 0
KRRS 240755Z 27008KT 12/M02 A2996 RMK A01 T01211021  RH  037%=      5-min Rain = 0
KRRS 240800Z 27011KT 13/M03 A2996 RMK A01 T01251025  RH  035%=      5-min Rain = 0
KRRS 240805Z 27010KT 13/M03 A2996 RMK A01 T01341025  RH  033%=      5-min Rain = 0
KRRS 240810Z 28010KT 13/M02 A2996 RMK A01 T01261017  RH  037%=      5-min Rain = 0
KRRS 240815Z 27011KT 12/M02 A2996 RMK A01 T01181017  RH  039%=      5-min Rain = 0
KRRS 240820Z 27010KT 12/M02 A2996 RMK A01 T01161016  RH  040%=      5-min Rain = 0
KRRS 240825Z 27010KT 11/M02 A2996 RMK A01 T01101015  RH  042%=      5-min Rain = 0
KRRS 240830Z 27011KT 10/M01 A2996 RMK A01 T01041014  RH  044%=      5-min Rain = 0
KRRS 240835Z 27010KT 10/M02 A2996 RMK A01 T01031016  RH  044%=      5-min Rain = 0
KRRS 240840Z 28012KT 10/M02 A2996 RMK A01 T01001015  RH  045%=      5-min Rain = 0
KRRS 240845Z 27011KT 10/M02 A2996 RMK A01 T01001017  RH  045%=      5-min Rain = 0
KRRS 240850Z 28009KT 10/M01 A2996 RMK A01 T00991014  RH  046%=      5-min Rain = 0
KRRS 240855Z 27011KT 10/M02 A2996 RMK A01 T00971016  RH  046%=      5-min Rain = 0
KRRS 240900Z 28011KT 10/M01 A2996 RMK A01 T00981014  RH  046%=      5-min Rain = 0
KRRS 240905Z 27011KT 10/M02 A2995 RMK A01 T00981015  RH  045%=      5-min Rain = 0
KRRS 240910Z 28011KT 10/M01 A2996 RMK A01 T00981014  RH  046%=      5-min Rain = 0
KRRS 240915Z 28011KT 10/M01 A2996 RMK A01 T00981014  RH  046%=      5-min Rain = 0
KRRS 240920Z 28011KT 10/M01 A2996 RMK A01 T00951012  RH  048%=      5-min Rain = 0
KRRS 240925Z 28011KT 09/M01 A2996 RMK A01 T00941013  RH  047%=      5-min Rain = 0
KRRS 240930Z 28011KT 10/M01 A2996 RMK A01 T00951013  RH  047%=      5-min Rain = 0
KRRS 240935Z 28011KT 10/M01 A2996 RMK A01 T00951013  RH  047%=      5-min Rain = 0
KRRS 240940Z 28011KT 10/M01 A2996 RMK A01 T00951014  RH  047%=      5-min Rain = 0
KRRS 240945Z 28011KT 10/M01 A2996 RMK A01 T00961014  RH  047%=      5-min Rain = 0
KRRS 240950Z 28012KT 10/M02 A2996 RMK A01 T00981016  RH  045%=      5-min Rain = 0
KRRS 240955Z 27013KT 10/M02 A2995 RMK A01 T01021017  RH  044%=      5-min Rain = 0
KRRS 241000Z 27012KT 10/M02 A2995 RMK A01 T01021016  RH  044%=      5-min Rain = 0
KRRS 241005Z 27013KT 10/M02 A2995 RMK A01 T01021018  RH  043%=      5-min Rain = 0
KRRS 241010Z 27012KT 10/M02 A2995 RMK A01 T01031018  RH  043%=      5-min Rain = 0
KRRS 241015Z 28013KT 10/M02 A2996 RMK A01 T01011017  RH  044%=      5-min Rain = 0
KRRS 241020Z 27011KT 10/M02 A2996 RMK A01 T00981015  RH  046%=      5-min Rain = 0
KRRS 241025Z 27011KT 09/M02 A2996 RMK A01 T00931015  RH  047%=      5-min Rain = 0
KRRS 241030Z 27010KT 09/M01 A2996 RMK A01 T00901014  RH  049%=      5-min Rain = 0
KRRS 241035Z 27010KT 09/M02 A2996 RMK A01 T00861015  RH  050%=      5-min Rain = 0
KRRS 241040Z 27009KT 09/M02 A2996 RMK A01 T00851015  RH  050%=      5-min Rain = 0
KRRS 241045Z 27009KT 08/M01 A2996 RMK A01 T00831014  RH  051%=      5-min Rain = 0
KRRS 241050Z 27009KT 08/M01 A2996 RMK A01 T00811014  RH  052%=      5-min Rain = 0
KRRS 241055Z 28010KT 08/M01 A2997 RMK A01 T00791014  RH  052%=      5-min Rain = 0
KRRS 241100Z 29011KT 08/M02 A2997 RMK A01 T00831017  RH  050%=      5-min Rain = 0
KRRS 241105Z 28012KT 09/M02 A2997 RMK A01 T00901018  RH  047%=      5-min Rain = 0
KRRS 241110Z 28011KT 10/M02 A2997 RMK A01 T01031018  RH  043%=      5-min Rain = 0
KRRS 241115Z 28010KT 11/M01 A2997 RMK A01 T01081014  RH  043%=      5-min Rain = 0
KRRS 241120Z 28009KT 11/M01 A2997 RMK A01 T01071010  RH  045%=      5-min Rain = 0
KRRS 241125Z 27009KT 10/M01 A2998 RMK A01 T01011007  RH  047%=      5-min Rain = 0
KRRS 241130Z 26009KT 10/M01 A2998 RMK A01 T00951006  RH  050%=      5-min Rain = 0
KRRS 241135Z 25008KT 09/M01 A2998 RMK A01 T00871010  RH  051%=      5-min Rain = 0
KRRS 241140Z 24009KT 08/M01 A2998 RMK A01 T00751012  RH  055%=      5-min Rain = 0
KRRS 241145Z 22006KT 07/M01 A2998 RMK A01 T00671011  RH  058%=      5-min Rain = 0
KRRS 241150Z 30002KT 07/M01 A2999 RMK A01 T00731006  RH  058%=      5-min Rain = 0
KRRS 241155Z 07001KT 08/M00 A2999 RMK A01 T00831003  RH  055%=      5-min Rain = 0
KRRS 241200Z 14003KT 08/M01 A30 RMK A01 T00781005  RH  056%=      5-min Rain = 0
KRRS 241205Z 15001KT 07/M01 A30 RMK A01 T00731005  RH  058%=      5-min Rain = 0
KRRS 241210Z 29001KT 08/00 A30 RMK A01 T00830000  RH  057%=      5-min Rain = 0
KRRS 241215Z 32002KT 09/00 A3001 RMK A01 T009000-0  RH  054%=      5-min Rain = 0
KRRS 241220Z 32003KT 09/00 A3001 RMK A01 T00910001  RH  054%=      5-min Rain = 0
KRRS 241225Z 33003KT 09/00 A3001 RMK A01 T00930004  RH  054%=      5-min Rain = 0
KRRS 241230Z 00003KT 09/00 A3001 RMK A01 T00940004  RH  054%=      5-min Rain = 0
KRRS 241235Z 02003KT 09/00 A3002 RMK A01 T00930004  RH  054%=      5-min Rain = 0
KRRS 241240Z 36006KT 09/01 A3002 RMK A01 T00910005  RH  056%=      5-min Rain = 0
KRRS 241245Z 34009KT 09/01 A3002 RMK A01 T00880013  RH  060%=      5-min Rain = 0
KRRS 241250Z 34010KT 09/02 A3002 RMK A01 T00890023  RH  064%=      5-min Rain = 0
KRRS 241255Z 35009KT 09/03 A3003 RMK A01 T00910028  RH  066%=      5-min Rain = 0
KRRS 241300Z 35008G13KT 09/03 A3003 RMK A01 T00900031  RH  067%=      5-min Rain = 0
KRRS 241305Z 34009KT 09/03 A3003 RMK A01 T00890033  RH  069%=      5-min Rain = 0
KRRS 241310Z 35010KT 09/04 A3003 RMK A01 T00900035  RH  070%=      5-min Rain = 0
KRRS 241315Z 35010G15KT 09/04 A3003 RMK A01 T00910037  RH  071%=      5-min Rain = 0
KRRS 241320Z 35010G15KT 09/04 A3004 RMK A01 T00910039  RH  071%=      5-min Rain = 0
KRRS 241325Z 36010G15KT 09/04 A3004 RMK A01 T00910040  RH  072%=      5-min Rain = 0
KRRS 241330Z 36010G16KT 09/04 A3004 RMK A01 T00920041  RH  072%=      5-min Rain = 0
KRRS 241335Z 35013KT 09/04 A3004 RMK A01 T00910042  RH  073%=      5-min Rain = 0
KRRS 241340Z 35013G19KT 09/04 A3004 RMK A01 T00930044  RH  073%=      5-min Rain = 0
KRRS 241345Z 35013G18KT 10/05 A3004 RMK A01 T00950045  RH  072%=      5-min Rain = 0
KRRS 241350Z 36014G20KT 10/05 A3004 RMK A01 T00970045  RH  072%=      5-min Rain = 0
KRRS 241355Z 35015G21KT 10/05 A3004 RMK A01 T00970046  RH  072%=      5-min Rain = 0
KRRS 241400Z 00016G21KT 10/05 A3004 RMK A01 T00980046  RH  072%=      5-min Rain = 0
KRRS 241405Z 00015G20KT 10/05 A3004 RMK A01 T00980046  RH  072%=      5-min Rain = 0
KRRS 241410Z 00015KT 10/05 A3004 RMK A01 T01000047  RH  071%=      5-min Rain = 0
KRRS 241415Z 00016G21KT 10/05 A3004 RMK A01 T01010047  RH  071%=      5-min Rain = 0
KRRS 241420Z 00013G19KT 10/05 A3004 RMK A01 T01040049  RH  070%=      5-min Rain = 0
KRRS 241425Z 01016KT 11/05 A3005 RMK A01 T01050048  RH  069%=      5-min Rain = 0
KRRS 241430Z 01015KT 11/05 A3005 RMK A01 T01070049  RH  069%=      5-min Rain = 0
KRRS 241435Z 00013G19KT 11/05 A3005 RMK A01 T01080050  RH  068%=      5-min Rain = 0
KRRS 241440Z 00014KT 11/05 A3006 RMK A01 T01090049  RH  068%=      5-min Rain = 0
KRRS 241445Z 35012KT 11/05 A3007 RMK A01 T01110050  RH  068%=      5-min Rain = 0
KRRS 241450Z 35013KT 11/05 A3007 RMK A01 T01140050  RH  066%=      5-min Rain = 0
KRRS 241455Z 35013G18KT 12/05 A3007 RMK A01 T01160051  RH  066%=      5-min Rain = 0
KRRS 241500Z 35013KT 12/05 A3007 RMK A01 T01160050  RH  065%=      5-min Rain = 0
KRRS 241505Z 36011KT 12/05 A3008 RMK A01 T01180051  RH  065%=      5-min Rain = 0
KRRS 241510Z 36011KT 12/05 A3008 RMK A01 T01190052  RH  065%=      5-min Rain = 0
KRRS 241515Z 00010G15KT 12/05 A3008 RMK A01 T01220053  RH  064%=      5-min Rain = 0
KRRS 241520Z 36009KT 13/05 A3008 RMK A01 T01250053  RH  063%=      5-min Rain = 0
KRRS 241525Z 00011KT 12/05 A3008 RMK A01 T01240053  RH  063%=      5-min Rain = 0
KRRS 241530Z 01010KT 13/05 A3009 RMK A01 T01270053  RH  062%=      5-min Rain = 0
KRRS 241535Z 02010KT 13/05 A3009 RMK A01 T01280053  RH  062%=      5-min Rain = 0
KRRS 241540Z 01010KT 13/06 A3009 RMK A01 T01290055  RH  062%=      5-min Rain = 0
KRRS 241545Z 01011KT 13/06 A3008 RMK A01 T01320055  RH  061%=      5-min Rain = 0
KRRS 241550Z 00010G16KT 13/06 A3009 RMK A01 T01330055  RH  060%=      5-min Rain = 0
KRRS 241555Z 01010KT 14/06 A3009 RMK A01 T01350055  RH  060%=      5-min Rain = 0
KRRS 241600Z 01010KT 14/06 A3009 RMK A01 T01390057  RH  059%=      5-min Rain = 0
KRRS 241605Z 01009KT 14/06 A3009 RMK A01 T01400056  RH  058%=      5-min Rain = 0
KRRS 241610Z 01010KT 14/06 A3009 RMK A01 T01430058  RH  058%=      5-min Rain = 0
KRRS 241615Z 00009G14KT 15/06 A3009 RMK A01 T01460059  RH  057%=      5-min Rain = 0
KRRS 241620Z 36010KT 14/06 A3009 RMK A01 T01440058  RH  057%=      5-min Rain = 0
KRRS 241625Z 01009KT 14/06 A3009 RMK A01 T01440057  RH  057%=      5-min Rain = 0
KRRS 241630Z 35010KT 15/06 A3009 RMK A01 T01460056  RH  056%=      5-min Rain = 0
KRRS 241635Z 35010G15KT 15/06 A3009 RMK A01 T01480058  RH  056%=      5-min Rain = 0
KRRS 241640Z 01008KT 15/06 A3009 RMK A01 T01490058  RH  056%=      5-min Rain = 0
KRRS 241645Z 01009KT 15/06 A3009 RMK A01 T01510058  RH  055%=      5-min Rain = 0
KRRS 241650Z 01009KT 15/06 A3009 RMK A01 T01510057  RH  055%=      5-min Rain = 0
KRRS 241655Z 01009KT 15/06 A3009 RMK A01 T01510057  RH  055%=      5-min Rain = 0
KRRS 241700Z 01009KT 16/06 A3009 RMK A01 T01570058  RH  053%=      5-min Rain = 0
KRRS 241705Z 01009KT 16/06 A3009 RMK A01 T01570056  RH  052%=      5-min Rain = 0
KRRS 241710Z 01006KT 16/06 A3009 RMK A01 T01560058  RH  053%=      5-min Rain = 0
KRRS 241715Z 03007KT 16/06 A3008 RMK A01 T01630060  RH  052%=      5-min Rain = 0
KRRS 241720Z 03009KT 17/06 A3008 RMK A01 T01690059  RH  049%=      5-min Rain = 0
KRRS 241725Z 02007KT 17/06 A3008 RMK A01 T01680061  RH  050%=      5-min Rain = 0
KRRS 241730Z 02009KT 17/06 A3008 RMK A01 T01720059  RH  048%=      5-min Rain = 0
KRRS 241735Z 01008G13KT 17/06 A3008 RMK A01 T01700060  RH  050%=      5-min Rain = 0
KRRS 241740Z 02007KT 17/06 A3008 RMK A01 T01720058  RH  048%=      5-min Rain = 0
KRRS 241745Z 02007G13KT 17/06 A3008 RMK A01 T01720058  RH  048%=      5-min Rain = 0
KRRS 241750Z 04007KT 18/06 A3008 RMK A01 T01750060  RH  048%=      5-min Rain = 0
KRRS 241755Z 02009KT 18/06 A3008 RMK A01 T01760055  RH  046%=      5-min Rain = 0
KRRS 241800Z 00007KT 18/06 A3008 RMK A01 T01760056  RH  046%=      5-min Rain = 0
KRRS 241805Z 04009KT 18/05 A3007 RMK A01 T01770054  RH  045%=      5-min Rain = 0
KRRS 241810Z 04007KT 18/06 A3007 RMK A01 T01780055  RH  045%=      5-min Rain = 0
KRRS 241815Z 03006KT 18/06 A3007 RMK A01 T01790057  RH  046%=      5-min Rain = 0
KRRS 241820Z 04006KT 18/06 A3007 RMK A01 T01810058  RH  046%=      5-min Rain = 0
KRRS 241825Z 03007KT 19/06 A3007 RMK A01 T01850056  RH  044%=      5-min Rain = 0
KRRS 241830Z 01005KT 18/06 A3007 RMK A01 T01840055  RH  044%=      5-min Rain = 0
KRRS 241835Z 01005KT 18/05 A3007 RMK A01 T01840054  RH  043%=      5-min Rain = 0
KRRS 241840Z 04005KT 18/06 A3007 RMK A01 T01840056  RH  044%=      5-min Rain = 0
KRRS 241845Z 02006KT 19/05 A3007 RMK A01 T01880053  RH  042%=      5-min Rain = 0
KRRS 241850Z 02006KT 18/05 A3006 RMK A01 T01820051  RH  043%=      5-min Rain = 0
KRRS 241855Z 02006KT 18/06 A3006 RMK A01 T01820055  RH  044%=      5-min Rain = 0
KRRS 241900Z 05006KT 19/05 A3007 RMK A01 T01860054  RH  043%=      5-min Rain = 0
KRRS 241905Z 01005KT 19/06 A3006 RMK A01 T01890055  RH  042%=      5-min Rain = 0
KRRS 241910Z 03005KT 19/05 A3007 RMK A01 T01890054  RH  042%=      5-min Rain = 0
KRRS 241915Z 06003KT 19/05 A3006 RMK A01 T01870050  RH  041%=      5-min Rain = 0
KRRS 241920Z 01006KT 19/05 A3006 RMK A01 T01870052  RH  042%=      5-min Rain = 0
KRRS 241925Z 01003KT 19/05 A3006 RMK A01 T01880051  RH  041%=      5-min Rain = 0
KRRS 241930Z 02002KT 19/05 A3006 RMK A01 T01900051  RH  041%=      5-min Rain = 0
KRRS 241935Z 36004G9KT 19/05 A3006 RMK A01 T01930054  RH  041%=      5-min Rain = 0
KRRS 241940Z 00006KT 19/05 A3006 RMK A01 T01930054  RH  041%=      5-min Rain = 0
KRRS 241945Z 33003KT 19/05 A3006 RMK A01 T01940053  RH  040%=      5-min Rain = 0
KRRS 241950Z 36005KT 19/05 A3006 RMK A01 T01940052  RH  040%=      5-min Rain = 0
KRRS 241955Z 35005G10KT 19/05 A3006 RMK A01 T01930052  RH  040%=      5-min Rain = 0
KRRS 242000Z 05003KT 19/05 A3005 RMK A01 T01930048  RH  039%=      5-min Rain = 0
KRRS 242005Z 02005KT 19/05 A3005 RMK A01 T01940049  RH  039%=      5-min Rain = 0
KRRS 242010Z 03003KT 19/05 A3005 RMK A01 T01930048  RH  039%=      5-min Rain = 0
KRRS 242015Z 05003KT 19/05 A3005 RMK A01 T01930047  RH  039%=      5-min Rain = 0
KRRS 242020Z 04003KT 20/05 A3005 RMK A01 T01970049  RH  039%=      5-min Rain = 0
KRRS 242025Z 00004KT 20/05 A3005 RMK A01 T01950052  RH  040%=      5-min Rain = 0
KRRS 242030Z 01003KT 20/05 A3005 RMK A01 T01960049  RH  039%=      5-min Rain = 0
KRRS 242035Z 01005KT 20/05 A3005 RMK A01 T01970052  RH  040%=      5-min Rain = 0
KRRS 242040Z 00004KT 20/05 A3005 RMK A01 T01980051  RH  039%=      5-min Rain = 0
KRRS 242045Z 05003KT 20/05 A3004 RMK A01 T01950047  RH  038%=      5-min Rain = 0
KRRS 242050Z 35003KT 19/05 A3004 RMK A01 T01940047  RH  039%=      5-min Rain = 0
KRRS 242055Z 35004KT 20/05 A3004 RMK A01 T01980051  RH  039%=      5-min Rain = 0
KRRS 242100Z 34004KT 20/05 A3004 RMK A01 T02020054  RH  039%=      5-min Rain = 0
KRRS 242105Z 02005KT 21/05 A3004 RMK A01 T02060053  RH  037%=      5-min Rain = 0
KRRS 242110Z 04005KT 21/05 A3004 RMK A01 T02070051  RH  037%=      5-min Rain = 0
KRRS 242115Z 00003KT 20/05 A3004 RMK A01 T02030049  RH  037%=      5-min Rain = 0
KRRS 242120Z 02006KT 21/05 A3004 RMK A01 T02080054  RH  038%=      5-min Rain = 0
KRRS 242125Z 03004KT 21/05 A3004 RMK A01 T02080050  RH  036%=      5-min Rain = 0
KRRS 242130Z 00004KT 21/05 A3004 RMK A01 T02090051  RH  036%=      5-min Rain = 0
KRRS 242135Z 04005KT 21/05 A3003 RMK A01 T02090051  RH  037%=      5-min Rain = 0
KRRS 242140Z 03006KT 21/05 A3003 RMK A01 T02090052  RH  037%=      5-min Rain = 0
KRRS 242145Z 03005KT 21/05 A3003 RMK A01 T02120053  RH  036%=      5-min Rain = 0
KRRS 242150Z 03004KT 21/05 A3003 RMK A01 T02130050  RH  035%=      5-min Rain = 0
KRRS 242155Z 35005KT 21/05 A3002 RMK A01 T02130052  RH  036%=      5-min Rain = 0
KRRS 242200Z 34002KT 21/05 A3002 RMK A01 T02130051  RH  035%=      5-min Rain = 0
KRRS 242205Z 09004KT 22/05 A3002 RMK A01 T02170050  RH  034%=      5-min Rain = 0
KRRS 242210Z 07004KT 22/05 A3002 RMK A01 T02160050  RH  034%=      5-min Rain = 0
KRRS 242215Z 11004KT 21/05 A3003 RMK A01 T02140047  RH  034%=      5-min Rain = 0
KRRS 242220Z 03004KT 22/05 A3003 RMK A01 T02160050  RH  035%=      5-min Rain = 0
KRRS 242225Z 04003KT 22/05 A3003 RMK A01 T02150048  RH  034%=      5-min Rain = 0
KRRS 242230Z 07004KT 22/05 A3003 RMK A01 T02160049  RH  034%=      5-min Rain = 0
KRRS 242235Z 07005KT 21/05 A3003 RMK A01 T02140048  RH  034%=      5-min Rain = 0
KRRS 242240Z 04006KT 22/05 A3003 RMK A01 T02150049  RH  035%=      5-min Rain = 0
KRRS 242245Z 05005KT 21/05 A3003 RMK A01 T02120048  RH  035%=      5-min Rain = 0
KRRS 242250Z 07005KT 21/05 A3002 RMK A01 T02120049  RH  035%=      5-min Rain = 0
KRRS 242255Z 09004KT 21/05 A3002 RMK A01 T02110048  RH  035%=      5-min Rain = 0
KRRS 242300Z 10004KT 21/05 A3003 RMK A01 T02090047  RH  035%=      5-min Rain = 0
KRRS 242305Z 11004KT 21/05 A3002 RMK A01 T02140047  RH  034%=      5-min Rain = 0
KRRS 242310Z 08004KT 22/05 A3002 RMK A01 T02170045  RH  033%=      5-min Rain = 0
KRRS 242315Z 08001KT 22/05 A3002 RMK A01 T02160045  RH  033%=      5-min Rain = 0
KRRS 242320Z 02001KT 22/05 A3002 RMK A01 T02190047  RH  033%=      5-min Rain = 0
KRRS 242325Z 15001KT 22/05 A3002 RMK A01 T02200045  RH  032%=      5-min Rain = 0
KRRS 242330Z 15002KT 22/05 A3002 RMK A01 T02210045  RH  032%=      5-min Rain = 0
KRRS 242335Z 09004KT 22/04 A3002 RMK A01 T02180044  RH  033%=      5-min Rain = 0
KRRS 242340Z 08003KT 22/05 A3002 RMK A01 T02160046  RH  034%=      5-min Rain = 0
KRRS 242345Z 13002KT 22/05 A3002 RMK A01 T02150046  RH  034%=      5-min Rain = 0
KRRS 242350Z 10002KT 22/04 A3002 RMK A01 T02160044  RH  033%=      5-min Rain = 0
KRRS 242355Z 12002KT 22/05 A3002 RMK A01 T02160045  RH  033%=      5-min Rain = 0
KRRS 250000Z 11004KT 22/05 A3002 RMK A01 T02150045  RH  033%=      5-min Rain = 0
KRRS 250005Z 10004KT 21/05 A3002 RMK A01 T02120045  RH  034%=      5-min Rain = 0
KRRS 250010Z 07003KT 21/05 A3002 RMK A01 T02100045  RH  034%=      5-min Rain = 0
KRRS 250015Z 07003KT 21/05 A3003 RMK A01 T02100046  RH  035%=      5-min Rain = 0
KRRS 250020Z 06005KT 21/05 A3003 RMK A01 T02080047  RH  036%=      5-min Rain = 0
KRRS 250025Z 07004KT 21/05 A3003 RMK A01 T02050048  RH  036%=      5-min Rain = 0
KRRS 250030Z 08003KT 20/05 A3003 RMK A01 T02030046  RH  036%=      5-min Rain = 0
KRRS 250035Z 07003KT 20/05 A3003 RMK A01 T02010046  RH  037%=      5-min Rain = 0
KRRS 250040Z 07003KT 20/05 A3003 RMK A01 T01990046  RH  037%=      5-min Rain = 0
KRRS 250045Z 09005KT 20/05 A3003 RMK A01 T01970047  RH  038%=      5-min Rain = 0
KRRS 250050Z 09006KT 19/05 A3003 RMK A01 T01900051  RH  041%=      5-min Rain = 0
KRRS 250055Z 08005KT 18/05 A3003 RMK A01 T01840050  RH  042%=      5-min Rain = 0
KRRS 250100Z 09005KT 18/05 A3003 RMK A01 T01810050  RH  043%=      5-min Rain = 0
KRRS 250105Z 09005KT 18/05 A3003 RMK A01 T01790050  RH  043%=      5-min Rain = 0
KRRS 250110Z 07005KT 18/05 A3003 RMK A01 T01780050  RH  044%=      5-min Rain = 0
KRRS 250115Z 06007KT 17/05 A3003 RMK A01 T01710051  RH  046%=      5-min Rain = 0
KRRS 250120Z 07007KT 16/05 A3003 RMK A01 T01640053  RH  049%=      5-min Rain = 0
KRRS 250125Z 07007KT 16/05 A3003 RMK A01 T01610052  RH  050%=      5-min Rain = 0
KRRS 250130Z 07006KT 16/05 A3003 RMK A01 T01590052  RH  050%=      5-min Rain = 0
KRRS 250135Z 07006KT 16/05 A3004 RMK A01 T01560052  RH  051%=      5-min Rain = 0
KRRS 250140Z 07005KT 16/05 A3004 RMK A01 T01550051  RH  051%=      5-min Rain = 0
KRRS 250145Z 07005KT 15/05 A3004 RMK A01 T01530051  RH  052%=      5-min Rain = 0
KRRS 250150Z 07006KT 15/05 A3004 RMK A01 T01510052  RH  052%=      5-min Rain = 0
KRRS 250155Z 08006KT 15/05 A3004 RMK A01 T01510052  RH  053%=      5-min Rain = 0
KRRS 250200Z 08006KT 15/05 A3004 RMK A01 T01490051  RH  053%=      5-min Rain = 0
KRRS 250205Z 07006KT 15/05 A3004 RMK A01 T01480051  RH  053%=      5-min Rain = 0
KRRS 250210Z 07006KT 15/05 A3005 RMK A01 T01450051  RH  054%=      5-min Rain = 0
KRRS 250215Z 07006KT 15/05 A3005 RMK A01 T01450051  RH  054%=      5-min Rain = 0
KRRS 250220Z 08006KT 14/05 A3005 RMK A01 T01440051  RH  055%=      5-min Rain = 0
KRRS 250225Z 08005KT 14/05 A3005 RMK A01 T01430052  RH  056%=      5-min Rain = 0
KRRS 250230Z 09005KT 14/05 A3005 RMK A01 T01420052  RH  056%=      5-min Rain = 0
KRRS 250235Z 09005KT 14/05 A3006 RMK A01 T01430052  RH  055%=      5-min Rain = 0
KRRS 250240Z 09005KT 14/05 A3006 RMK A01 T01430053  RH  056%=      5-min Rain = 0
KRRS 250245Z 09005KT 14/05 A3006 RMK A01 T01430054  RH  056%=      5-min Rain = 0
KRRS 250250Z 08005KT 14/05 A3007 RMK A01 T01430054  RH  056%=      5-min Rain = 0
KRRS 250255Z 08006KT 14/05 A3007 RMK A01 T01430054  RH  056%=      5-min Rain = 0
KRRS 250300Z 08006KT 14/06 A3007 RMK A01 T01440056  RH  057%=      5-min Rain = 0
KRRS 250305Z 07006KT 14/06 A3007 RMK A01 T01410055  RH  057%=      5-min Rain = 0
KRRS 250310Z 07006KT 14/06 A3007 RMK A01 T01390055  RH  058%=      5-min Rain = 0
KRRS 250315Z 06006KT 14/06 A3008 RMK A01 T01360055  RH  059%=      5-min Rain = 0
KRRS 250320Z 06006KT 13/06 A3008 RMK A01 T01330055  RH  060%=      5-min Rain = 0
KRRS 250325Z 07005KT 13/06 A3008 RMK A01 T01320055  RH  061%=      5-min Rain = 0
KRRS 250330Z 07005KT 13/06 A3008 RMK A01 T01320056  RH  061%=      5-min Rain = 0
KRRS 250335Z 07005KT 13/06 A3009 RMK A01 T01310056  RH  062%=      5-min Rain = 0
KRRS 250340Z 07005KT 13/06 A3009 RMK A01 T01290056  RH  063%=      5-min Rain = 0
KRRS 250345Z 07005KT 13/06 A3009 RMK A01 T01280058  RH  064%=      5-min Rain = 0
KRRS 250350Z 07005KT 13/06 A3009 RMK A01 T01270058  RH  064%=      5-min Rain = 0
KRRS 250355Z 07005KT 13/06 A3009 RMK A01 T01260058  RH  065%=      5-min Rain = 0
KRRS 250400Z 08005KT 13/06 A3009 RMK A01 T01260060  RH  066%=      5-min Rain = 0
KRRS 250405Z 08006KT 13/06 A3009 RMK A01 T01250063  RH  068%=      5-min Rain = 0
KRRS 250410Z 08005KT 12/06 A3009 RMK A01 T01230063  RH  068%=      5-min Rain = 0
KRRS 250415Z 07004KT 12/06 A301 RMK A01 T01210062  RH  069%=      5-min Rain = 0
KRRS 250420Z 08005KT 12/06 A3009 RMK A01 T01200063  RH  070%=      5-min Rain = 0
KRRS 250425Z 10006KT 12/07 A3009 RMK A01 T01210065  RH  070%=      5-min Rain = 0
KRRS 250430Z 09004KT 12/07 A301 RMK A01 T01210065  RH  070%=      5-min Rain = 0
KRRS 250435Z 09005KT 12/06 A301 RMK A01 T01190064  RH  071%=      5-min Rain = 0
KRRS 250440Z 09005KT 12/07 A3009 RMK A01 T01170065  RH  072%=      5-min Rain = 0
KRRS 250445Z 09005KT 12/06 A3009 RMK A01 T01170064  RH  072%=      5-min Rain = 0
KRRS 250450Z 10006KT 12/07 A3009 RMK A01 T01160065  RH  073%=      5-min Rain = 0
KRRS 250455Z 09004KT 12/07 A301 RMK A01 T01160065  RH  072%=      5-min Rain = 0

Page generated in 0.027 seconds.